createdAt,value
2019-03-12T00:01:14.368Z,7.80
2019-03-12T00:03:45.915Z,6.33
2019-03-12T00:06:17.264Z,5.87
2019-03-12T00:08:48.753Z,6.47
2019-03-12T00:11:17.621Z,8.58
2019-03-12T00:13:46.495Z,6.35
2019-03-12T00:16:15.409Z,7.83
2019-03-12T00:18:44.375Z,10.05
2019-03-12T00:21:20.239Z,6.83
2019-03-12T00:23:49.119Z,7.58
2019-03-12T00:26:18.113Z,6.35
2019-03-12T00:28:47.000Z,6.03
2019-03-12T00:31:19.579Z,7.05
2019-03-12T00:33:48.493Z,5.85
2019-03-12T00:36:18.285Z,5.55
2019-03-12T00:38:47.274Z,8.30
2019-03-12T00:41:16.163Z,6.10
2019-03-12T00:43:45.059Z,9.28
2019-03-12T00:46:14.043Z,8.75
2019-03-12T00:48:47.667Z,7.03
2019-03-12T00:51:18.276Z,5.10
2019-03-12T00:53:47.164Z,7.08
2019-03-12T00:56:16.362Z,6.00
2019-03-12T00:58:45.356Z,6.45
2019-03-12T01:01:14.306Z,6.90
2019-03-12T01:03:44.777Z,7.20
2019-03-12T01:06:13.663Z,6.10
2019-03-12T01:08:42.656Z,6.78
2019-03-12T01:11:14.433Z,6.90
2019-03-12T01:13:43.098Z,5.75
2019-03-12T01:16:14.558Z,6.10
2019-03-12T01:18:43.446Z,9.58
2019-03-12T01:21:12.435Z,8.75
2019-03-12T01:23:41.320Z,9.43
2019-03-12T01:26:10.211Z,5.33
2019-03-12T01:28:41.763Z,6.55
2019-03-12T01:31:10.666Z,5.20
2019-03-12T01:33:39.547Z,6.58
2019-03-12T01:36:13.248Z,5.20
2019-03-12T01:38:42.341Z,7.22
2019-03-12T01:41:11.333Z,5.80
2019-03-12T01:43:41.257Z,6.78
2019-03-12T01:46:10.137Z,4.80
2019-03-12T01:48:39.030Z,5.28
2019-03-12T01:51:12.048Z,5.42
2019-03-12T01:53:40.804Z,6.22
2019-03-12T01:56:09.690Z,6.67
2019-03-12T01:58:38.687Z,9.33
2019-03-12T02:01:11.160Z,6.17
2019-03-12T02:03:44.109Z,4.87
2019-03-12T02:06:13.035Z,5.58
2019-03-12T02:08:44.573Z,3.90
2019-03-12T02:11:17.286Z,4.20
2019-03-12T02:13:47.238Z,7.20
2019-03-12T02:16:16.173Z,8.68
2019-03-12T02:18:45.077Z,8.55
2019-03-12T02:21:13.953Z,6.22
2019-03-12T02:23:46.543Z,5.60
2019-03-12T02:26:16.650Z,6.40
2019-03-12T02:28:56.396Z,5.33
2019-03-12T02:31:27.953Z,7.47
2019-03-12T02:33:59.912Z,7.47
2019-03-12T02:36:30.889Z,4.00
2019-03-12T02:38:59.333Z,4.33
2019-03-12T02:41:28.325Z,7.92
2019-03-12T02:43:57.214Z,4.92
2019-03-12T02:46:32.855Z,3.65
2019-03-12T02:49:09.063Z,4.05
2019-03-12T02:51:36.146Z,4.80
2019-03-12T02:54:07.806Z,6.20
2019-03-12T02:56:42.486Z,5.83
2019-03-12T02:59:11.437Z,13.15
2019-03-12T03:01:41.558Z,4.70
2019-03-12T03:04:12.086Z,6.58
2019-03-12T03:06:54.082Z,6.08
2019-03-12T03:09:23.075Z,7.67
2019-03-12T03:11:52.071Z,5.75
2019-03-12T03:14:32.746Z,6.08
2019-03-12T03:17:02.727Z,9.60
2019-03-12T03:19:35.246Z,4.90
2019-03-12T03:22:04.224Z,5.30
2019-03-12T03:24:33.312Z,5.75
2019-03-12T03:27:02.405Z,5.85
2019-03-12T03:29:31.501Z,3.98
2019-03-12T03:32:00.393Z,5.65
2019-03-12T03:34:31.765Z,4.45
2019-03-12T03:37:00.705Z,4.87
2019-03-12T03:39:32.187Z,7.70
2019-03-12T03:42:02.099Z,7.15
2019-03-12T03:44:35.020Z,8.25
2019-03-12T03:47:03.984Z,5.87
2019-03-12T03:49:37.629Z,5.40
2019-03-12T03:52:06.059Z,5.62
2019-03-12T03:54:37.408Z,6.80
2019-03-12T03:57:15.203Z,4.90
2019-03-12T03:59:44.197Z,4.45
2019-03-12T04:02:13.187Z,6.65
2019-03-12T04:04:42.177Z,4.12
2019-03-12T04:07:13.635Z,7.37
2019-03-12T04:09:45.314Z,4.15
2019-03-12T04:12:14.478Z,5.35
2019-03-12T04:14:47.535Z,5.00
2019-03-12T04:17:22.404Z,5.12
2019-03-12T04:19:51.292Z,3.50
2019-03-12T04:22:24.038Z,5.53
2019-03-12T04:24:52.447Z,4.95
2019-03-12T04:27:21.335Z,4.90
2019-03-12T04:29:50.224Z,6.47
2019-03-12T04:32:19.217Z,5.67
2019-03-12T04:34:48.113Z,5.35
2019-03-12T04:37:20.891Z,5.20
2019-03-12T04:39:56.640Z,6.20
2019-03-12T04:42:25.528Z,4.70
2019-03-12T04:44:58.003Z,3.80
2019-03-12T04:47:32.783Z,5.40
2019-03-12T04:50:01.722Z,11.20
2019-03-12T04:52:31.398Z,31.93
2019-03-12T04:55:03.092Z,18.73
2019-03-12T04:57:32.901Z,40.80
2019-03-12T05:00:10.002Z,47.90
2019-03-12T05:02:38.873Z,65.10
2019-03-12T05:05:16.363Z,13.78
2019-03-12T05:07:45.405Z,46.23
2019-03-12T05:10:18.981Z,40.28
2019-03-12T05:12:47.743Z,14.25
2019-03-12T05:15:19.194Z,49.58
2019-03-12T05:17:48.132Z,19.65
2019-03-12T05:20:18.303Z,17.48
2019-03-12T05:22:51.063Z,41.88
2019-03-12T05:25:20.998Z,28.23
2019-03-12T05:27:50.929Z,16.02
2019-03-12T05:30:20.392Z,11.57
2019-03-12T05:32:51.800Z,12.60
2019-03-12T05:35:20.759Z,10.53
2019-03-12T05:37:50.685Z,10.40
2019-03-12T05:40:20.487Z,7.95
2019-03-12T05:42:50.398Z,8.65
2019-03-12T05:45:22.298Z,12.23
2019-03-12T05:47:51.251Z,11.97
2019-03-12T05:50:25.297Z,12.00
2019-03-12T05:53:16.575Z,10.03
2019-03-12T05:55:45.569Z,12.40
2019-03-12T05:58:14.316Z,11.68
2019-03-12T06:00:44.272Z,10.00
2019-03-12T06:03:14.288Z,11.63
2019-03-12T06:05:46.580Z,11.83
2019-03-12T06:08:15.753Z,7.53
2019-03-12T06:10:44.642Z,11.28
2019-03-12T06:13:18.579Z,11.28
2019-03-12T06:15:53.298Z,16.40
2019-03-12T06:18:23.190Z,9.58
2019-03-12T06:20:52.288Z,12.00
2019-03-12T06:23:21.188Z,8.13
2019-03-12T06:25:50.172Z,12.98
2019-03-12T06:28:19.081Z,12.35
2019-03-12T06:31:01.366Z,12.40
2019-03-12T06:33:52.756Z,11.65
2019-03-12T06:36:38.175Z,10.50
2019-03-12T06:39:19.175Z,13.40
2019-03-12T06:42:09.834Z,12.90
2019-03-12T06:44:58.696Z,22.17
2019-03-12T06:47:38.255Z,30.02
2019-03-12T06:50:09.000Z,9.43
2019-03-12T06:52:51.483Z,9.43
2019-03-12T06:55:24.769Z,10.58
2019-03-12T06:58:18.552Z,10.00
2019-03-12T07:00:54.819Z,13.48
2019-03-12T07:03:43.502Z,8.13
2019-03-12T07:06:21.900Z,9.35
2019-03-12T07:09:09.433Z,9.10
2019-03-12T07:11:43.096Z,13.70
2019-03-12T07:14:33.184Z,10.60
2019-03-12T07:17:09.348Z,12.53
2019-03-12T07:19:42.947Z,12.03
2019-03-12T07:22:25.574Z,9.48
2019-03-12T07:24:58.954Z,8.10
2019-03-12T07:30:13.024Z,7.90
2019-03-12T07:32:56.306Z,8.50
2019-03-12T07:35:41.932Z,6.97
2019-03-12T07:38:15.225Z,5.90
2019-03-12T07:41:04.258Z,6.78
2019-03-12T07:43:40.544Z,5.95
2019-03-12T07:46:19.978Z,9.00
2019-03-12T07:48:56.452Z,6.97
2019-03-12T07:51:35.679Z,11.97
2019-03-12T07:54:20.413Z,9.25
2019-03-12T07:56:57.216Z,10.78
2019-03-12T07:59:32.661Z,9.60
2019-03-12T08:02:23.568Z,8.75
2019-03-12T08:04:54.988Z,8.00
2019-03-12T08:07:42.133Z,9.48
2019-03-12T08:10:13.074Z,8.35
2019-03-12T08:13:01.315Z,10.20
2019-03-12T08:15:43.732Z,10.03
2019-03-12T08:18:35.386Z,10.53
2019-03-12T08:21:22.237Z,11.38
2019-03-12T08:23:51.097Z,18.10
2019-03-12T08:26:24.746Z,13.85
2019-03-12T08:28:55.184Z,13.55
2019-03-12T08:31:38.523Z,12.30
2019-03-12T08:34:08.932Z,6.28
2019-03-12T08:36:49.287Z,9.10
2019-03-12T08:39:29.953Z,10.20
2019-03-12T08:42:06.317Z,9.93
2019-03-12T08:44:54.222Z,13.32
2019-03-12T08:47:31.850Z,15.20
2019-03-12T08:50:11.387Z,9.55
2019-03-12T08:52:50.012Z,11.85
2019-03-12T08:55:25.551Z,9.33
2019-03-12T08:58:04.888Z,10.80
2019-03-12T09:00:47.088Z,7.87
2019-03-12T09:03:32.569Z,11.63
2019-03-12T09:06:16.818Z,7.85
2019-03-12T09:08:50.115Z,9.45
2019-03-12T09:11:20.640Z,14.93
2019-03-12T09:13:56.596Z,8.23
2019-03-12T09:16:43.610Z,11.35
2019-03-12T09:19:14.137Z,18.27
2019-03-12T09:21:44.672Z,15.50
2019-03-12T09:24:25.640Z,10.88
2019-03-12T09:26:59.757Z,11.97
2019-03-12T09:29:30.282Z,13.35
2019-03-12T09:32:10.665Z,8.73
2019-03-12T09:34:44.342Z,14.63
2019-03-12T09:37:17.740Z,10.75
2019-03-12T09:39:54.205Z,7.30
2019-03-12T09:42:42.449Z,9.75
2019-03-12T09:45:15.657Z,7.97
2019-03-12T09:47:58.459Z,9.05
2019-03-12T09:50:31.752Z,5.05
2019-03-12T09:53:08.224Z,6.47
2019-03-12T09:55:38.749Z,5.95
2019-03-12T09:58:16.040Z,7.00
2019-03-12T10:01:02.536Z,12.98
2019-03-12T10:03:45.968Z,8.08
2019-03-12T10:06:16.496Z,7.62
2019-03-12T10:08:47.025Z,13.48
2019-03-12T10:11:17.450Z,11.50
2019-03-12T10:13:47.994Z,15.45
2019-03-12T10:16:36.940Z,10.70
2019-03-12T10:19:07.570Z,8.18
2019-03-12T10:21:40.864Z,7.87
2019-03-12T10:24:20.112Z,6.28
2019-03-12T10:26:56.565Z,13.15
2019-03-12T10:29:44.603Z,9.88
2019-03-12T10:32:20.760Z,9.88
2019-03-12T10:34:55.080Z,9.65
2019-03-12T10:37:34.962Z,8.98
2019-03-12T10:40:21.224Z,8.38
2019-03-12T10:43:13.770Z,7.80
2019-03-12T10:45:48.190Z,5.55
2019-03-12T10:48:18.209Z,7.15
2019-03-12T10:50:46.941Z,7.95
2019-03-12T10:53:18.223Z,3.47
2019-03-12T10:55:49.892Z,7.40
2019-03-12T10:58:18.797Z,9.13
2019-03-12T11:00:57.277Z,6.75
2019-03-12T11:03:25.369Z,5.85
2019-03-12T11:05:54.259Z,10.80
2019-03-12T11:08:23.150Z,5.20
2019-03-12T11:10:52.039Z,9.53
2019-03-12T11:13:21.034Z,7.87
2019-03-12T11:15:50.023Z,4.75
2019-03-12T11:18:18.915Z,4.87
2019-03-12T11:20:47.803Z,4.80
2019-03-12T11:23:16.902Z,6.78
2019-03-12T11:25:45.797Z,4.87
2019-03-12T11:28:15.809Z,4.95
2019-03-12T11:30:47.942Z,4.75
2019-03-12T11:33:15.322Z,5.60
2019-03-12T11:35:52.610Z,4.45
2019-03-12T11:38:24.431Z,5.20
2019-03-12T11:40:56.074Z,11.80
2019-03-12T11:43:26.039Z,5.70
2019-03-12T11:45:57.601Z,6.33
2019-03-12T11:48:27.506Z,6.08
2019-03-12T11:50:56.504Z,6.22
2019-03-12T11:53:29.391Z,10.23
2019-03-12T11:55:58.338Z,10.70
2019-03-12T11:58:31.053Z,6.67
2019-03-12T12:01:05.665Z,5.33
2019-03-12T12:03:34.566Z,8.75
2019-03-12T12:06:09.068Z,12.45
2019-03-12T12:08:41.364Z,8.70
2019-03-12T12:11:11.377Z,9.18
2019-03-12T12:13:41.290Z,7.45
2019-03-12T12:16:10.183Z,7.90
2019-03-12T12:18:46.649Z,5.30
2019-03-12T12:21:15.743Z,7.85
2019-03-12T12:23:45.657Z,4.30
2019-03-12T12:26:14.645Z,6.10
2019-03-12T12:28:43.536Z,7.58
2019-03-12T12:31:12.429Z,8.38
2019-03-12T12:33:41.228Z,7.62
2019-03-12T12:36:10.206Z,9.48
2019-03-12T12:38:39.199Z,7.92
2019-03-12T12:41:11.979Z,7.40
2019-03-12T12:43:40.973Z,5.90
2019-03-12T12:46:09.862Z,7.33
2019-03-12T12:48:38.856Z,6.33
2019-03-12T12:51:12.789Z,5.78
2019-03-12T12:53:44.650Z,11.95
2019-03-12T12:56:13.717Z,11.22
2019-03-12T12:58:43.637Z,13.22
2019-03-12T13:01:15.083Z,10.50
2019-03-12T13:03:44.073Z,9.30
2019-03-12T13:06:13.063Z,6.62
2019-03-12T13:08:46.623Z,10.88
2019-03-12T13:13:43.831Z,5.83
2019-03-12T13:16:24.422Z,7.62
2019-03-12T13:18:45.206Z,6.70
2019-03-12T13:21:14.084Z,9.45
2019-03-12T13:23:46.630Z,8.70
2019-03-12T13:26:15.553Z,5.62
2019-03-12T13:28:45.147Z,10.65
2019-03-12T13:31:15.284Z,10.55
2019-03-12T13:33:44.269Z,9.30
2019-03-12T13:36:15.663Z,10.60
2019-03-12T13:38:48.616Z,14.20
2019-03-12T13:41:17.186Z,10.78
2019-03-12T13:43:46.381Z,10.40
2019-03-12T13:46:16.475Z,7.47
2019-03-12T13:48:52.662Z,5.67
2019-03-12T13:51:21.554Z,6.05
2019-03-12T13:53:50.549Z,5.03
2019-03-12T13:56:19.540Z,9.60
2019-03-12T13:58:48.426Z,5.90
2019-03-12T14:01:23.112Z,9.48
2019-03-12T14:03:51.657Z,7.30
2019-03-12T14:06:21.452Z,6.28
2019-03-12T14:08:54.357Z,34.23
2019-03-12T14:11:23.122Z,14.47
2019-03-12T14:13:56.980Z,18.42
2019-03-12T14:16:30.838Z,30.72
2019-03-12T14:18:59.716Z,22.87
2019-03-12T14:21:28.625Z,42.80
2019-03-12T14:24:00.022Z,43.13
2019-03-12T14:26:33.488Z,24.63
2019-03-12T14:29:02.752Z,32.53
2019-03-12T14:31:32.567Z,34.50
2019-03-12T14:34:04.836Z,31.00
2019-03-12T14:36:37.317Z,39.50
2019-03-12T14:39:06.652Z,41.53
2019-03-12T14:41:38.175Z,35.70
2019-03-12T14:44:07.152Z,14.50
2019-03-12T14:46:48.052Z,9.68
2019-03-12T14:49:17.947Z,9.20
2019-03-12T14:51:55.837Z,11.60
2019-03-12T14:54:28.106Z,9.00
2019-03-12T14:56:58.027Z,15.85
2019-03-12T14:59:26.814Z,21.00
2019-03-12T15:01:57.336Z,24.82
2019-03-12T15:04:26.227Z,11.43
2019-03-12T15:06:56.253Z,5.42
2019-03-12T15:09:27.643Z,8.93
2019-03-12T15:11:56.581Z,7.00
2019-03-12T15:14:29.029Z,10.58
2019-03-12T15:16:57.947Z,9.73
2019-03-12T15:19:26.839Z,12.50
2019-03-12T15:21:55.832Z,14.68
2019-03-12T15:24:24.730Z,11.68
2019-03-12T15:26:53.628Z,11.03
2019-03-12T15:29:22.601Z,8.40
2019-03-12T15:32:03.388Z,9.75
2019-03-12T15:34:31.339Z,10.68
2019-03-12T15:37:00.846Z,13.00
2019-03-12T15:39:33.112Z,8.53
2019-03-12T15:42:02.900Z,8.78
2019-03-12T15:44:35.191Z,8.78
2019-03-12T15:47:04.126Z,11.15
2019-03-12T15:49:33.079Z,10.13
2019-03-12T15:52:02.070Z,9.20
2019-03-12T15:54:31.980Z,10.08
2019-03-12T15:57:00.973Z,10.20
2019-03-12T15:59:29.867Z,9.08
2019-03-12T16:01:59.710Z,12.47
2019-03-12T16:04:31.238Z,15.10
2019-03-12T16:07:01.897Z,9.38
2019-03-12T16:09:30.850Z,15.40
2019-03-12T16:12:00.765Z,8.80
2019-03-12T16:14:29.759Z,10.90
2019-03-12T16:16:58.652Z,11.48
2019-03-12T16:19:27.637Z,19.17
2019-03-12T16:21:56.733Z,18.02
2019-03-12T16:24:25.626Z,8.45
2019-03-12T16:26:54.512Z,7.60
2019-03-12T16:29:28.626Z,8.73
2019-03-12T16:32:03.199Z,13.85
2019-03-12T16:34:31.729Z,10.08
2019-03-12T16:37:01.648Z,11.38
2019-03-12T16:39:30.883Z,14.28
2019-03-12T16:42:02.597Z,13.62
2019-03-12T16:44:33.867Z,20.45
2019-03-12T16:47:02.017Z,17.40
2019-03-12T16:49:30.907Z,9.73
2019-03-12T16:51:59.795Z,16.30
2019-03-12T16:54:35.752Z,11.85
2019-03-12T16:57:04.659Z,12.25
2019-03-12T16:59:37.300Z,16.65
2019-03-12T17:02:06.092Z,12.47
2019-03-12T17:04:34.996Z,8.55
2019-03-12T17:07:04.848Z,13.83
2019-03-12T17:09:33.699Z,18.75
2019-03-12T17:12:02.591Z,15.45
2019-03-12T17:14:38.812Z,16.27
2019-03-12T17:17:04.428Z,17.45
2019-03-12T17:19:34.274Z,17.12
2019-03-12T17:22:05.864Z,11.73
2019-03-12T17:24:38.057Z,16.37
2019-03-12T17:27:06.988Z,14.28
2019-03-12T17:29:35.878Z,13.15
2019-03-12T17:32:07.334Z,13.40
2019-03-12T17:34:39.883Z,17.00
2019-03-12T17:37:07.773Z,14.65
2019-03-12T17:39:39.216Z,16.80
2019-03-12T17:42:09.035Z,16.55
2019-03-12T17:44:40.684Z,14.83
2019-03-12T17:47:09.572Z,12.88
2019-03-12T17:49:38.669Z,11.38
2019-03-12T17:52:08.686Z,14.68
2019-03-12T17:54:37.573Z,15.60
2019-03-12T17:57:06.462Z,38.65
2019-03-12T17:59:38.939Z,16.25
2019-03-12T18:02:07.827Z,15.38
2019-03-12T18:04:36.717Z,11.83
2019-03-12T18:07:09.726Z,12.37
2019-03-12T18:09:38.596Z,15.10
2019-03-12T18:12:07.388Z,23.98
2019-03-12T18:14:40.365Z,18.42
2019-03-12T18:17:09.257Z,18.40
2019-03-12T18:19:38.079Z,14.35
2019-03-12T18:22:07.243Z,18.02
2019-03-12T18:24:36.134Z,17.35
2019-03-12T18:27:09.219Z,16.57
2019-03-12T18:29:41.650Z,15.43
2019-03-12T18:32:10.585Z,14.80
2019-03-12T18:34:41.769Z,18.57
2019-03-12T18:37:18.201Z,30.37
2019-03-12T18:39:53.005Z,49.80
2019-03-12T18:42:22.834Z,235.88
2019-03-12T18:44:54.225Z,240.25
2019-03-12T18:47:25.735Z,131.25
2019-03-12T18:49:57.902Z,116.60
2019-03-12T18:52:32.368Z,69.53
2019-03-12T18:55:08.247Z,69.85
2019-03-12T18:57:40.340Z,20.80
2019-03-12T19:00:12.762Z,19.62
2019-03-12T19:02:47.619Z,20.72
2019-03-12T19:05:17.494Z,18.98
2019-03-12T19:07:53.014Z,31.12
2019-03-12T19:10:24.361Z,29.85
2019-03-12T19:12:54.363Z,30.88
2019-03-12T19:15:27.760Z,22.00
2019-03-12T19:20:28.610Z,26.52
2019-03-12T19:23:04.218Z,32.42
2019-03-12T19:25:47.278Z,29.02
2019-03-12T19:28:17.300Z,38.15
2019-03-12T19:30:52.853Z,36.35
2019-03-12T19:33:27.364Z,31.82
2019-03-12T19:35:57.587Z,38.08
2019-03-12T19:38:34.032Z,28.20
2019-03-12T19:41:08.369Z,39.88
2019-03-12T19:43:37.263Z,31.07
2019-03-12T19:46:12.652Z,31.85
2019-03-12T19:48:44.072Z,29.32
2019-03-12T19:51:13.148Z,33.48
2019-03-12T19:53:47.632Z,35.30
2019-03-12T19:56:18.983Z,31.42
2019-03-12T19:58:49.473Z,34.15
2019-03-12T20:01:20.369Z,32.53
2019-03-12T20:03:52.239Z,48.00
2019-03-12T20:06:26.512Z,36.17
2019-03-12T20:09:00.724Z,31.45
2019-03-12T20:11:31.632Z,35.10
2019-03-12T20:14:20.838Z,39.40
2019-03-12T20:17:20.998Z,44.63
2019-03-12T20:20:22.245Z,35.08
2019-03-12T20:23:15.027Z,28.60
2019-03-12T20:26:10.505Z,27.90
2019-03-12T20:28:58.545Z,25.60
2019-03-12T20:31:45.475Z,25.55
2019-03-12T20:34:43.329Z,27.58
2019-03-12T20:37:41.107Z,22.77
2019-03-12T20:40:48.896Z,61.02
2019-03-12T20:43:26.589Z,43.33
2019-03-12T20:46:09.139Z,53.85
2019-03-12T20:49:14.346Z,63.90
2019-03-12T20:52:02.998Z,49.00
2019-03-12T20:55:00.972Z,43.23
2019-03-12T20:58:02.547Z,34.75
2019-03-12T21:00:47.540Z,36.42
2019-03-12T21:03:55.601Z,30.15
2019-03-12T21:06:36.831Z,49.13
2019-03-12T21:09:24.204Z,49.58
2019-03-12T21:12:02.823Z,51.60
2019-03-12T21:14:57.104Z,58.13
2019-03-12T21:17:45.452Z,64.35
2019-03-12T21:20:35.963Z,63.38
2019-03-12T21:23:37.711Z,62.40
2019-03-12T21:26:12.705Z,72.15
2019-03-12T21:29:07.146Z,119.75
2019-03-12T21:31:38.891Z,179.55
2019-03-12T21:34:10.437Z,250.35
2019-03-12T21:36:39.428Z,230.12
2019-03-12T21:39:08.730Z,201.32
2019-03-12T21:41:40.514Z,174.05
2019-03-12T21:44:08.198Z,146.05
2019-03-12T21:46:37.141Z,114.42
2019-03-12T21:49:09.972Z,98.85
2019-03-12T21:51:38.915Z,89.65
2019-03-12T21:54:10.466Z,72.75
2019-03-12T21:56:47.514Z,59.45
2019-03-12T21:59:19.005Z,64.40
2019-03-12T22:01:49.710Z,61.77
2019-03-12T22:04:22.515Z,68.30
2019-03-12T22:06:51.513Z,67.22
2019-03-12T22:09:21.421Z,71.85
2019-03-12T22:11:50.318Z,67.78
2019-03-12T22:14:19.299Z,65.78
2019-03-12T22:16:51.368Z,73.20
2019-03-12T22:19:20.138Z,66.25
2019-03-12T22:21:51.567Z,69.12
2019-03-12T22:24:21.414Z,62.48
2019-03-12T22:26:50.304Z,65.25
2019-03-12T22:29:19.300Z,70.35
2019-03-12T22:31:51.874Z,76.50
2019-03-12T22:34:20.760Z,75.40
2019-03-12T22:36:49.757Z,79.72
2019-03-12T22:39:18.798Z,87.15
2019-03-12T22:41:47.738Z,84.47
2019-03-12T22:44:16.835Z,95.67
2019-03-12T22:46:45.657Z,113.22
2019-03-12T22:49:18.497Z,108.65
2019-03-12T22:51:48.833Z,128.27
2019-03-12T22:54:17.925Z,129.53
2019-03-12T22:56:48.836Z,133.25
2019-03-12T22:59:18.814Z,156.02
2019-03-12T23:01:47.801Z,172.78
2019-03-12T23:04:20.473Z,185.63
2019-03-12T23:06:49.654Z,194.60
2019-03-12T23:09:18.889Z,229.95
2019-03-12T23:11:47.739Z,229.80
2019-03-12T23:14:16.936Z,251.40
2019-03-12T23:16:46.476Z,265.45
2019-03-12T23:19:19.527Z,228.27
2019-03-12T23:21:48.519Z,238.28
2019-03-12T23:24:17.617Z,227.90
2019-03-12T23:26:46.609Z,262.93
2019-03-12T23:29:15.703Z,265.98
2019-03-12T23:31:44.648Z,248.28
2019-03-12T23:34:17.371Z,235.43
2019-03-12T23:36:46.469Z,238.55
2019-03-12T23:39:17.939Z,234.85
2019-03-12T23:41:47.937Z,223.78
2019-03-12T23:44:16.931Z,204.87
2019-03-12T23:46:45.916Z,194.13
2019-03-12T23:49:19.216Z,172.95
2019-03-12T23:51:48.408Z,157.85
2019-03-12T23:54:17.322Z,156.70
2019-03-12T23:56:46.298Z,142.32
2019-03-12T23:59:16.227Z,140.22
